createdAt,value
2022-11-05T00:05:38.655Z,19.9
2022-11-05T00:11:30.235Z,17.2
2022-11-05T00:17:25.245Z,16.2
2022-11-05T00:23:18.354Z,19.4
2022-11-05T00:29:11.974Z,20.4
2022-11-05T00:35:03.452Z,20.4
2022-11-05T00:40:57.088Z,26.2
2022-11-05T00:46:52.773Z,25.4
2022-11-05T00:52:45.791Z,25.4
2022-11-05T00:58:41.958Z,26.6
2022-11-05T01:04:33.729Z,27.6
2022-11-05T01:10:25.548Z,35.6
2022-11-05T01:16:24.361Z,28.8
2022-11-05T01:22:18.477Z,27.5
2022-11-05T01:28:09.534Z,26.5
2022-11-05T01:34:07.405Z,26.3
2022-11-05T01:39:59.717Z,26.8
2022-11-05T01:45:51.756Z,26.5
2022-11-05T01:52:00.469Z,26.6
2022-11-05T01:57:55.950Z,25.7
2022-11-05T02:03:48.878Z,32.4
2022-11-05T02:09:50.396Z,36.8
2022-11-05T02:15:42.443Z,32.8
2022-11-05T02:21:37.209Z,29.7
2022-11-05T02:27:29.192Z,35.9
2022-11-05T02:33:30.496Z,34.2
2022-11-05T02:39:33.764Z,32
2022-11-05T02:51:32.570Z,28.6
2022-11-05T02:57:29.850Z,26.7
2022-11-05T03:03:25.396Z,29.6
2022-11-05T03:09:16.824Z,27
2022-11-05T03:15:21.361Z,25.9
2022-11-05T03:21:12.545Z,27.5
2022-11-05T03:27:03.576Z,30.7
2022-11-05T03:33:10.069Z,27.8
2022-11-05T03:39:10.877Z,27.3
2022-11-05T03:45:17.457Z,27.3
2022-11-05T03:51:11.739Z,31.2
2022-11-05T03:57:07.400Z,31.1
2022-11-05T04:02:59.110Z,34.3
2022-11-05T04:08:54.028Z,30
2022-11-05T04:15:10.253Z,33.2
2022-11-05T04:21:14.508Z,32.7
2022-11-05T04:27:04.021Z,34.7
2022-11-05T04:32:57.241Z,35.8
2022-11-05T04:39:05.764Z,30.8
2022-11-05T04:45:06.927Z,31.6
2022-11-05T04:51:03.547Z,32.4
2022-11-05T04:57:11.395Z,31.4
2022-11-05T05:03:05.377Z,35.4
2022-11-05T05:09:15.537Z,31.8
2022-11-05T05:15:06.073Z,31.6
2022-11-05T05:20:58.115Z,35.2
2022-11-05T05:26:51.042Z,31.9
2022-11-05T05:33:09.560Z,33.8
2022-11-05T05:38:59.270Z,30
2022-11-05T05:45:00.829Z,29.9
2022-11-05T05:50:52.831Z,32
2022-11-05T05:56:47.927Z,30
2022-11-05T06:02:42.684Z,28.5
2022-11-05T06:08:36.341Z,27.5
2022-11-05T06:14:29.456Z,28
2022-11-05T06:20:22.135Z,30.1
2022-11-05T06:26:21.805Z,27
2022-11-05T06:32:13.118Z,23.9
2022-11-05T06:38:04.871Z,24.8
2022-11-05T06:44:00.238Z,26.8
2022-11-05T06:50:03.161Z,25.3
2022-11-05T06:55:55.780Z,23.2
2022-11-05T07:01:56.244Z,22.7
2022-11-05T07:07:49.315Z,24.1
2022-11-05T07:13:40.606Z,23.6
2022-11-05T07:19:33.690Z,27.9
2022-11-05T07:25:28.543Z,23.5
2022-11-05T07:31:27.763Z,23
2022-11-05T07:37:32.621Z,23
2022-11-05T07:43:36.085Z,21.1
2022-11-05T07:49:32.887Z,21.5
2022-11-05T07:55:26.098Z,20.9
2022-11-05T08:01:27.506Z,27.7
2022-11-05T08:07:20.688Z,25.7
2022-11-05T08:13:15.163Z,25.7
2022-11-05T08:19:07.688Z,27.7
2022-11-05T08:25:09.666Z,29.9
2022-11-05T08:31:03.445Z,24.7
2022-11-05T08:36:58.441Z,22.2
2022-11-05T08:42:53.820Z,22.1
2022-11-05T10:02:02.439Z,12.6
2022-11-05T10:08:14.664Z,16
2022-11-05T10:14:06.951Z,8.8
2022-11-05T10:19:58.397Z,8.6
2022-11-05T10:25:51.697Z,7.1
2022-11-05T10:31:43.482Z,6.6
2022-11-05T10:37:35.925Z,6.4
2022-11-05T10:43:31.242Z,6.3
2022-11-05T10:49:26.029Z,5.6
2022-11-05T10:55:17.536Z,5.9
2022-11-05T11:01:10.852Z,5.6
2022-11-05T11:07:01.284Z,5.3
2022-11-05T11:12:54.783Z,4.9
2022-11-05T11:18:54.214Z,5.4
2022-11-05T11:24:58.987Z,9.5
2022-11-05T11:30:49.603Z,4.7
2022-11-05T11:36:41.478Z,4.3
2022-11-05T11:42:37.488Z,3.8
2022-11-05T11:54:51.311Z,4
2022-11-05T12:00:47.284Z,3.6
2022-11-05T12:06:37.109Z,3.9
2022-11-05T12:12:28.635Z,3.7
2022-11-05T12:18:18.914Z,3.5
2022-11-05T12:24:10.872Z,4
2022-11-05T12:30:02.123Z,4
2022-11-05T12:36:03.110Z,3.8
2022-11-05T12:42:00.006Z,3.9
2022-11-05T12:47:53.265Z,3.5
2022-11-05T12:53:43.802Z,3.4
2022-11-05T12:59:33.334Z,3.5
2022-11-05T13:05:24.694Z,4.1
2022-11-05T13:11:15.096Z,3.2
2022-11-05T13:17:06.164Z,3.6
2022-11-05T13:22:56.375Z,3.1
2022-11-05T13:28:46.341Z,3.8
2022-11-05T13:34:44.703Z,3.6
2022-11-05T13:40:35.148Z,3.5
2022-11-05T13:46:34.028Z,3.2
2022-11-05T13:52:24.249Z,3.7
2022-11-05T13:59:30.481Z,2.9
2022-11-05T14:05:19.820Z,4.6
2022-11-05T14:11:21.668Z,3.2
2022-11-05T14:17:11.616Z,2.8
2022-11-05T14:23:09.962Z,2.8
2022-11-05T14:29:13.448Z,2.6
2022-11-05T14:35:03.894Z,2.7
2022-11-05T14:40:55.124Z,2.8
2022-11-05T14:46:46.153Z,3
2022-11-05T14:52:36.544Z,3.3
2022-11-05T14:58:27.712Z,5
2022-11-05T15:04:22.802Z,3.1
2022-11-05T15:10:18.696Z,2.5
2022-11-05T15:16:08.288Z,2.7
2022-11-05T15:21:59.509Z,2.7
2022-11-05T15:27:51.615Z,4.6
2022-11-05T15:33:45.754Z,3.8
2022-11-05T15:39:38.514Z,3.4
2022-11-05T15:45:30.955Z,3.4
2022-11-05T15:51:24.134Z,3.6
2022-11-05T15:57:21.786Z,4.2
2022-11-05T16:03:14.293Z,4.1
2022-11-05T16:09:22.516Z,4.4
2022-11-05T16:15:15.447Z,5.8
2022-11-05T16:21:08.831Z,6.1
2022-11-05T16:27:23.173Z,6.7
2022-11-05T16:33:12.467Z,6.4
2022-11-05T16:39:04.399Z,6
2022-11-05T16:44:59.809Z,5.6
2022-11-05T16:50:56.482Z,4.9
2022-11-05T16:57:09.168Z,5.5
2022-11-05T17:03:13.130Z,6.4
2022-11-05T17:16:04.973Z,8
2022-11-05T17:21:54.946Z,7.7
2022-11-05T17:27:55.659Z,7.7
2022-11-05T17:40:54.863Z,9.5
2022-11-05T17:46:55.413Z,9.5
2022-11-05T17:52:44.711Z,9
2022-11-05T17:58:35.968Z,8.1
2022-11-05T18:04:26.505Z,9.4
2022-11-05T18:10:17.327Z,9.4
2022-11-05T18:16:09.474Z,10.6
2022-11-05T18:22:00.918Z,11.5
2022-11-05T18:27:53.698Z,12.4
2022-11-05T18:33:43.863Z,18.2
2022-11-05T18:39:39.739Z,16
2022-11-05T18:45:36.257Z,16.2
2022-11-05T18:51:27.078Z,12.3
2022-11-05T18:57:18.254Z,9.8
2022-11-05T19:03:09.237Z,11.5
2022-11-05T19:08:59.250Z,11.1
2022-11-05T19:14:51.577Z,11.6
2022-11-05T19:20:45.485Z,12.6
2022-11-05T19:26:41.145Z,13.4
2022-11-05T19:32:31.391Z,12.7
2022-11-05T19:38:23.093Z,12.1
2022-11-05T19:44:13.974Z,12.2
2022-11-05T19:50:05.079Z,12.3
2022-11-05T19:55:55.670Z,12.3
2022-11-05T20:01:49.272Z,12.6
2022-11-05T20:07:40.933Z,13.8
2022-11-05T20:13:32.059Z,14.7
2022-11-05T20:19:22.421Z,14.5
2022-11-05T20:25:12.583Z,14.2
2022-11-05T20:31:02.893Z,16
2022-11-05T20:36:53.850Z,15.2
2022-11-05T20:42:45.770Z,15
2022-11-05T20:48:36.475Z,15.3
2022-11-05T20:54:27.699Z,16
2022-11-05T21:00:18.211Z,15.5
2022-11-05T21:06:09.103Z,16
2022-11-05T21:12:00.304Z,15.6
2022-11-05T21:17:52.146Z,14.4
2022-11-05T21:23:43.880Z,14.1
2022-11-05T21:29:35.127Z,14.9
2022-11-05T21:35:26.040Z,13.6
2022-11-05T21:41:17.388Z,12.5
2022-11-05T21:47:07.730Z,12.5
2022-11-05T21:52:59.298Z,12.3
2022-11-05T21:58:50.049Z,12.1
2022-11-05T22:04:38.978Z,12.6
2022-11-05T22:10:29.473Z,12.5
2022-11-05T22:16:19.769Z,12.2
2022-11-05T22:22:10.788Z,12.2
2022-11-05T22:28:03.871Z,11.4
2022-11-05T22:33:55.218Z,11.9
2022-11-05T22:39:45.966Z,11.2
2022-11-05T22:45:39.367Z,11.3
2022-11-05T22:51:31.107Z,11
2022-11-05T22:57:20.854Z,12.2
2022-11-05T23:03:14.052Z,12.3
2022-11-05T23:09:05.317Z,11.6
2022-11-05T23:14:58.360Z,11.3
2022-11-05T23:20:49.735Z,12.2
2022-11-05T23:26:40.949Z,11.9
2022-11-05T23:32:33.209Z,12.5
2022-11-05T23:38:23.938Z,13.7
2022-11-05T23:44:14.672Z,12.1
2022-11-05T23:50:04.684Z,11.1
2022-11-05T23:55:54.765Z,11.7
